Aviation Digital Data Service (ADDS)

Output produced by METARs form (1309 UTC 30 August 2016)
found at http://www.aviationweather.gov/adds/metars/
 
KATL 301135Z 3012/3118 06006KT P6SM FEW050 
     FM301400 08008KT P6SM SCT030 
     FM301700 07012G18KT P6SM SCT045 
     FM310000 09007KT P6SM SCT120 
     FM311400 06009KT P6SM FEW030